Welcome, Minnesota
Current Conditions -  °F | °C
As of 2:35 PM on Thursday 29 Jan 2015 (Local Time) from KFRM Reporting Station
Overcast Overcast  
Wind Chill: 12°   Ceiling: 2100
Heat Index: 27°   Visibility: 10mi
Dew Point: 18°   Wind: 24mph
Humidity: 69%   Direction: 320°NW
Pressure: 30.33"   Gusts: 33mph
Location:  43.67°N, 94.62°W
Report Text: KFRM 292035Z AUTO 32021G29KT 10SM OVC021 M03/M08 A3033 RMK AO1
Loading
Personal Weather Stations






























Interactive Weather Map New forecast layout! Learn more

10-Day Weather Forecast

Advertisements
Track Severe Weather on mobile